createdAt,value
2023-05-24T00:01:57.033Z,4.80
2023-05-24T00:04:30.616Z,3.80
2023-05-24T00:07:02.942Z,4.33
2023-05-24T00:09:33.106Z,3.80
2023-05-24T00:12:01.822Z,4.50
2023-05-24T00:14:30.389Z,4.20
2023-05-24T00:16:59.161Z,4.20
2023-05-24T00:19:27.962Z,4.27
2023-05-24T00:21:56.685Z,4.90
2023-05-24T00:24:25.286Z,4.27
2023-05-24T00:26:55.476Z,4.07
2023-05-24T00:29:23.969Z,4.13
2023-05-24T00:31:52.881Z,4.20
2023-05-24T00:34:21.755Z,4.57
2023-05-24T00:36:50.318Z,5.23
2023-05-24T00:39:19.029Z,4.20
2023-05-24T00:41:47.644Z,3.70
2023-05-24T00:44:17.573Z,3.80
2023-05-24T00:46:46.508Z,4.00
2023-05-24T00:49:15.359Z,3.90
2023-05-24T00:51:43.900Z,3.77
2023-05-24T00:54:14.047Z,4.03
2023-05-24T00:56:43.262Z,3.70
2023-05-24T00:59:11.867Z,5.73
2023-05-24T01:01:42.162Z,4.77
2023-05-24T01:04:11.058Z,4.83
2023-05-24T01:06:46.239Z,3.97
2023-05-24T01:09:19.518Z,3.70
2023-05-24T01:11:52.802Z,4.37
2023-05-24T01:14:25.197Z,4.10
2023-05-24T01:16:58.178Z,4.00
2023-05-24T01:19:44.953Z,3.30
2023-05-24T01:22:19.835Z,3.10
2023-05-24T01:24:54.897Z,3.20
2023-05-24T01:27:25.149Z,5.33
2023-05-24T01:29:54.398Z,6.83
2023-05-24T01:32:23.443Z,4.53
2023-05-24T01:34:52.143Z,4.40
2023-05-24T01:37:20.655Z,4.10
2023-05-24T01:39:49.412Z,3.60
2023-05-24T01:42:23.345Z,5.27
2023-05-24T01:44:57.139Z,3.60
2023-05-24T01:47:30.954Z,4.03
2023-05-24T01:50:01.901Z,3.20
2023-05-24T01:52:33.083Z,5.37
2023-05-24T01:55:03.025Z,10.93
2023-05-24T01:57:33.455Z,4.80
2023-05-24T02:00:04.141Z,5.63
2023-05-24T02:02:32.840Z,6.30
2023-05-24T02:05:01.802Z,4.43
2023-05-24T02:07:30.291Z,3.27
2023-05-24T02:09:58.906Z,3.50
2023-05-24T02:12:27.526Z,3.53
2023-05-24T02:14:57.303Z,3.13
2023-05-24T02:17:27.726Z,4.10
2023-05-24T02:19:56.448Z,3.47
2023-05-24T02:22:25.086Z,3.37
2023-05-24T02:24:53.632Z,3.10
2023-05-24T02:27:22.283Z,3.00
2023-05-24T02:29:50.919Z,3.17
2023-05-24T02:32:19.419Z,3.43
2023-05-24T02:34:49.401Z,3.20
2023-05-24T02:37:18.013Z,3.53
2023-05-24T02:39:46.515Z,3.40
2023-05-24T02:42:15.135Z,3.23
2023-05-24T02:44:47.747Z,3.13
2023-05-24T02:47:16.337Z,3.00
2023-05-24T02:49:44.911Z,2.90
2023-05-24T02:52:16.038Z,3.07
2023-05-24T02:54:44.876Z,3.17
2023-05-24T02:57:13.504Z,3.03
2023-05-24T02:59:42.041Z,3.37
2023-05-24T03:02:13.850Z,2.90
2023-05-24T03:04:42.496Z,3.63
2023-05-24T03:07:11.172Z,3.50
2023-05-24T03:09:41.388Z,8.73
2023-05-24T03:12:10.250Z,8.70
2023-05-24T03:14:38.783Z,4.43
2023-05-24T03:17:07.434Z,4.70
2023-05-24T03:19:36.029Z,4.40
2023-05-24T03:22:06.296Z,4.03
2023-05-24T03:24:34.943Z,3.50
2023-05-24T03:27:05.074Z,3.63
2023-05-24T03:29:33.604Z,3.67
2023-05-24T03:32:02.535Z,3.43
2023-05-24T03:34:31.616Z,3.50
2023-05-24T03:37:00.143Z,3.83
2023-05-24T03:39:28.810Z,3.47
2023-05-24T03:41:57.624Z,3.57
2023-05-24T03:44:27.728Z,3.23
2023-05-24T03:46:56.553Z,3.97
2023-05-24T03:49:25.049Z,4.50
2023-05-24T03:51:53.556Z,4.10
2023-05-24T03:54:22.308Z,3.83
2023-05-24T03:56:53.317Z,3.37
2023-05-24T03:59:21.866Z,4.27
2023-05-24T04:01:52.045Z,3.50
2023-05-24T04:04:20.824Z,4.20
2023-05-24T04:06:49.756Z,4.30
2023-05-24T04:09:18.532Z,4.63
2023-05-24T04:11:47.156Z,4.20
2023-05-24T04:14:15.764Z,4.53
2023-05-24T04:16:45.458Z,4.77
2023-05-24T04:19:15.765Z,4.60
2023-05-24T04:21:44.395Z,4.70
2023-05-24T04:24:13.044Z,4.17
2023-05-24T04:26:41.695Z,4.23
2023-05-24T04:29:10.265Z,4.20
2023-05-24T04:31:38.958Z,4.20
2023-05-24T04:34:09.947Z,4.40
2023-05-24T04:36:39.924Z,4.87
2023-05-24T04:39:08.453Z,5.13
2023-05-24T04:41:37.325Z,4.70
2023-05-24T04:44:06.044Z,4.60
2023-05-24T04:46:36.229Z,4.57
2023-05-24T04:49:05.793Z,4.40
2023-05-24T04:51:38.869Z,4.20
2023-05-24T04:54:09.824Z,4.20
2023-05-24T04:56:39.479Z,3.60
2023-05-24T04:59:08.033Z,3.63
2023-05-24T05:01:36.704Z,3.60
2023-05-24T05:04:05.813Z,4.00
2023-05-24T05:06:39.696Z,3.77
2023-05-24T05:09:10.787Z,3.90
2023-05-24T05:11:39.329Z,3.77
2023-05-24T05:14:09.611Z,3.70
2023-05-24T05:16:38.722Z,4.00
2023-05-24T05:19:07.369Z,4.03
2023-05-24T05:21:39.973Z,3.33
2023-05-24T05:24:10.012Z,3.47
2023-05-24T05:26:38.788Z,3.70
2023-05-24T05:29:07.393Z,3.47
2023-05-24T05:31:36.078Z,3.30
2023-05-24T05:34:04.639Z,3.40
2023-05-24T05:36:33.319Z,3.20
2023-05-24T05:39:02.030Z,2.90
2023-05-24T05:41:31.916Z,3.10
2023-05-24T05:44:00.600Z,3.40
2023-05-24T05:46:29.243Z,3.17
2023-05-24T05:48:57.757Z,3.00
2023-05-24T05:51:26.394Z,3.50
2023-05-24T05:53:55.105Z,3.00
2023-05-24T05:56:23.607Z,3.00
2023-05-24T05:58:53.634Z,2.80
2023-05-24T06:01:22.312Z,3.00
2023-05-24T06:03:51.060Z,2.97
2023-05-24T06:06:19.814Z,3.20
2023-05-24T06:08:48.447Z,3.00
2023-05-24T06:11:16.955Z,2.90
2023-05-24T06:13:45.618Z,2.80
2023-05-24T06:16:16.125Z,3.30
2023-05-24T06:18:57.016Z,3.47
2023-05-24T06:21:33.323Z,3.00
2023-05-24T06:24:02.717Z,3.03
2023-05-24T06:26:31.396Z,3.03
2023-05-24T06:29:00.092Z,3.10
2023-05-24T06:31:30.042Z,3.37
2023-05-24T06:36:30.316Z,3.70
2023-05-24T06:38:58.830Z,3.33
2023-05-24T06:41:28.137Z,3.70
2023-05-24T06:43:56.992Z,3.70
2023-05-24T06:46:25.704Z,3.57
2023-05-24T06:48:55.762Z,3.63
2023-05-24T06:51:24.708Z,3.37
2023-05-24T06:53:53.264Z,3.20
2023-05-24T06:56:21.896Z,3.60
2023-05-24T06:58:51.204Z,3.57
2023-05-24T07:01:19.844Z,3.67
2023-05-24T07:03:48.410Z,3.50
2023-05-24T07:06:19.005Z,3.33
2023-05-24T07:08:49.646Z,3.57
2023-05-24T07:11:18.388Z,3.33
2023-05-24T07:13:47.057Z,3.93
2023-05-24T07:16:15.886Z,3.60
2023-05-24T07:18:44.507Z,3.50
2023-05-24T07:21:13.127Z,3.60
2023-05-24T07:23:43.286Z,3.83
2023-05-24T07:26:12.770Z,3.97
2023-05-24T07:28:41.792Z,3.80
2023-05-24T07:31:10.681Z,3.50
2023-05-24T07:33:39.656Z,3.80
2023-05-24T07:36:08.968Z,3.50
2023-05-24T07:38:37.503Z,3.70
2023-05-24T07:41:09.331Z,4.03
2023-05-24T07:43:38.448Z,3.83
2023-05-24T07:46:07.532Z,4.10
2023-05-24T07:48:36.188Z,3.87
2023-05-24T07:51:04.728Z,3.80
2023-05-24T07:53:34.344Z,3.60
2023-05-24T07:56:03.040Z,3.67
2023-05-24T07:58:32.943Z,3.47
2023-05-24T08:01:01.748Z,3.40
2023-05-24T08:03:30.484Z,3.27
2023-05-24T08:05:59.064Z,3.93
2023-05-24T08:08:27.700Z,3.17
2023-05-24T08:10:56.354Z,3.20
2023-05-24T08:13:24.889Z,3.17
2023-05-24T08:15:54.953Z,3.23
2023-05-24T08:18:23.605Z,2.90
2023-05-24T08:20:52.165Z,2.67
2023-05-24T08:23:21.953Z,2.80
2023-05-24T08:25:50.645Z,2.70
2023-05-24T08:28:19.222Z,2.50
2023-05-24T08:30:48.242Z,2.50
2023-05-24T08:33:19.050Z,2.83
2023-05-24T08:35:48.309Z,2.60
2023-05-24T08:38:17.038Z,2.90
2023-05-24T08:40:45.678Z,3.10
2023-05-24T08:43:14.200Z,2.97
2023-05-24T08:45:43.156Z,2.70
2023-05-24T08:48:13.456Z,3.10
2023-05-24T08:50:44.190Z,3.00
2023-05-24T08:53:13.015Z,3.00
2023-05-24T08:55:43.595Z,2.97
2023-05-24T08:58:13.058Z,3.00
2023-05-24T09:00:41.677Z,3.40
2023-05-24T09:03:11.648Z,2.67
2023-05-24T09:05:42.258Z,2.90
2023-05-24T09:08:13.679Z,3.13
2023-05-24T09:10:54.140Z,2.93
2023-05-24T09:13:24.979Z,3.10
2023-05-24T09:15:53.976Z,3.20
2023-05-24T09:18:22.634Z,2.87
2023-05-24T09:20:51.663Z,3.13
2023-05-24T09:23:21.644Z,3.10
2023-05-24T09:25:51.534Z,2.97
2023-05-24T09:28:21.227Z,3.23
2023-05-24T09:31:00.192Z,3.30
2023-05-24T09:33:31.181Z,2.90
2023-05-24T09:36:00.575Z,2.80
2023-05-24T09:38:30.553Z,2.77
2023-05-24T09:41:03.507Z,2.70
2023-05-24T09:43:32.978Z,3.03
2023-05-24T09:46:01.641Z,2.80
2023-05-24T09:48:30.747Z,3.13
2023-05-24T09:51:01.264Z,2.77
2023-05-24T09:53:31.174Z,2.90
2023-05-24T09:56:00.508Z,3.07
2023-05-24T09:58:32.386Z,3.30
2023-05-24T10:01:08.040Z,3.10
2023-05-24T10:03:37.440Z,2.70
2023-05-24T10:06:07.738Z,2.90
2023-05-24T10:08:38.179Z,3.00
2023-05-24T10:11:07.291Z,3.07
2023-05-24T10:13:36.825Z,2.90
2023-05-24T10:16:05.631Z,3.00
2023-05-24T10:18:34.150Z,2.70
2023-05-24T10:21:03.961Z,3.00
2023-05-24T10:23:33.591Z,3.10
2023-05-24T10:26:07.718Z,3.10
2023-05-24T10:28:38.116Z,2.88
2023-05-24T10:31:09.565Z,3.03
2023-05-24T10:33:39.305Z,3.00
2023-05-24T10:36:09.997Z,3.03
2023-05-24T10:38:41.023Z,3.20
2023-05-24T10:41:11.008Z,2.78
2023-05-24T10:43:40.009Z,2.93
2023-05-24T10:46:11.934Z,3.43
2023-05-24T10:48:41.190Z,3.37
2023-05-24T10:51:28.443Z,3.00
2023-05-24T10:53:59.157Z,2.77
2023-05-24T10:56:30.614Z,3.20
2023-05-24T10:59:02.511Z,2.90
2023-05-24T11:01:32.299Z,3.37
2023-05-24T11:04:10.534Z,3.17
2023-05-24T11:06:49.582Z,3.20
2023-05-24T11:09:20.218Z,3.10
2023-05-24T11:11:51.273Z,3.07
2023-05-24T11:14:20.928Z,2.90
2023-05-24T11:16:51.441Z,2.80
2023-05-24T11:19:21.310Z,2.70
2023-05-24T11:21:50.480Z,2.80
2023-05-24T11:24:19.447Z,2.70
2023-05-24T11:26:48.418Z,2.97
2023-05-24T11:29:22.770Z,3.20
2023-05-24T11:31:52.683Z,3.00
2023-05-24T11:34:21.444Z,3.00
2023-05-24T11:36:50.625Z,3.22
2023-05-24T11:39:19.189Z,3.03
2023-05-24T11:41:49.390Z,3.13
2023-05-24T11:44:20.845Z,3.00
2023-05-24T11:46:49.708Z,3.10
2023-05-24T11:49:19.049Z,3.00
2023-05-24T11:51:48.153Z,3.07
2023-05-24T11:54:16.750Z,3.00
2023-05-24T11:56:45.421Z,3.07
2023-05-24T11:59:17.773Z,3.00
2023-05-24T12:01:47.872Z,2.83
2023-05-24T12:04:16.468Z,2.80
2023-05-24T12:06:46.414Z,2.67
2023-05-24T12:09:15.092Z,2.70
2023-05-24T12:11:44.676Z,3.20
2023-05-24T12:14:14.819Z,3.20
2023-05-24T12:16:44.509Z,3.30
2023-05-24T12:19:31.818Z,3.15
2023-05-24T12:22:02.576Z,2.95
2023-05-24T12:24:31.428Z,3.30
2023-05-24T12:27:01.211Z,2.88
2023-05-24T12:29:34.429Z,2.88
2023-05-24T12:32:03.165Z,2.90
2023-05-24T12:34:33.098Z,3.00
2023-05-24T12:37:04.494Z,2.97
2023-05-24T12:39:35.449Z,2.70
2023-05-24T12:42:04.317Z,3.17
2023-05-24T12:44:33.846Z,2.70
2023-05-24T12:47:04.239Z,2.92
2023-05-24T12:49:34.596Z,2.60
2023-05-24T12:52:03.124Z,2.85
2023-05-24T12:54:31.844Z,2.80
2023-05-24T12:57:02.907Z,3.05
2023-05-24T12:59:31.628Z,2.80
2023-05-24T13:02:00.999Z,2.53
2023-05-24T13:04:31.892Z,2.63
2023-05-24T13:07:02.936Z,2.75
2023-05-24T13:09:31.630Z,2.70
2023-05-24T13:12:00.314Z,2.90
2023-05-24T13:14:28.836Z,2.70
2023-05-24T13:16:57.536Z,3.13
2023-05-24T13:19:26.214Z,2.50
2023-05-24T13:21:55.687Z,2.55
2023-05-24T13:24:25.816Z,2.80
2023-05-24T13:26:55.105Z,2.67
2023-05-24T13:31:56.636Z,2.30
2023-05-24T13:34:27.235Z,2.70
2023-05-24T13:36:56.180Z,2.60
2023-05-24T13:39:26.624Z,2.93
2023-05-24T13:41:55.299Z,2.80
2023-05-24T13:44:23.870Z,2.80
2023-05-24T13:46:52.712Z,3.00
2023-05-24T13:49:21.774Z,2.60
2023-05-24T13:51:50.504Z,2.50
2023-05-24T13:54:19.146Z,2.90
2023-05-24T13:56:49.258Z,2.80
2023-05-24T13:59:18.372Z,2.80
2023-05-24T14:01:47.157Z,2.60
2023-05-24T14:04:16.940Z,2.40
2023-05-24T14:06:45.452Z,2.60
2023-05-24T14:09:15.404Z,2.70
2023-05-24T14:11:45.486Z,2.30
2023-05-24T14:16:51.837Z,2.60
2023-05-24T14:19:20.432Z,2.53
2023-05-24T14:21:49.146Z,2.37
2023-05-24T14:24:17.806Z,2.43
2023-05-24T14:26:47.606Z,2.23
2023-05-24T14:29:17.687Z,2.13
2023-05-24T14:31:46.626Z,1.77
2023-05-24T14:34:15.185Z,2.10
2023-05-24T14:36:45.469Z,2.23
2023-05-24T14:39:14.146Z,2.13
2023-05-24T14:41:42.656Z,1.80
2023-05-24T14:44:11.319Z,2.00
2023-05-24T14:46:42.113Z,1.70
2023-05-24T14:49:10.624Z,1.80
2023-05-24T14:51:39.340Z,1.97
2023-05-24T14:54:09.549Z,1.73
2023-05-24T14:56:38.182Z,1.83
2023-05-24T14:59:06.809Z,1.70
2023-05-24T15:01:35.486Z,1.60
2023-05-24T15:04:05.404Z,1.50
2023-05-24T15:06:35.432Z,1.50
2023-05-24T15:09:04.274Z,1.33
2023-05-24T15:11:33.162Z,1.67
2023-05-24T15:14:02.142Z,1.80
2023-05-24T15:16:31.171Z,1.80
2023-05-24T15:18:59.712Z,1.80
2023-05-24T15:21:29.651Z,2.07
2023-05-24T15:23:58.487Z,1.80
2023-05-24T15:26:27.129Z,1.63
2023-05-24T15:28:55.671Z,1.90
2023-05-24T15:31:24.388Z,1.90
2023-05-24T15:33:52.958Z,1.80
2023-05-24T15:36:21.617Z,1.90
2023-05-24T15:38:51.675Z,1.67
2023-05-24T15:41:20.179Z,1.70
2023-05-24T15:43:48.692Z,2.10
2023-05-24T15:46:17.664Z,1.83
2023-05-24T15:48:46.194Z,1.93
2023-05-24T15:53:46.437Z,2.07
2023-05-24T15:56:16.592Z,1.93
2023-05-24T15:58:45.887Z,2.20
2023-05-24T16:01:14.620Z,1.83
2023-05-24T16:03:43.212Z,1.87
2023-05-24T16:06:11.816Z,2.13
2023-05-24T16:08:40.558Z,1.90
2023-05-24T16:11:10.123Z,2.20
2023-05-24T16:13:40.024Z,2.10
2023-05-24T16:16:08.845Z,2.00
2023-05-24T16:18:37.441Z,1.93
2023-05-24T16:21:06.783Z,1.90
2023-05-24T16:23:35.654Z,1.90
2023-05-24T16:26:04.173Z,2.10
2023-05-24T16:28:32.692Z,2.10
2023-05-24T16:31:04.034Z,2.20
2023-05-24T16:33:32.547Z,2.37
2023-05-24T16:36:03.457Z,1.87
2023-05-24T16:38:32.480Z,2.07
2023-05-24T16:41:01.124Z,1.80
2023-05-24T16:43:29.679Z,2.00
2023-05-24T16:45:58.377Z,1.97
2023-05-24T16:48:31.674Z,2.00
2023-05-24T16:51:00.596Z,2.20
2023-05-24T16:53:29.405Z,1.77
2023-05-24T16:55:58.420Z,1.60
2023-05-24T16:58:29.238Z,1.50
2023-05-24T17:00:58.645Z,1.90
2023-05-24T17:03:29.704Z,1.97
2023-05-24T17:06:01.917Z,1.80
2023-05-24T17:08:31.902Z,2.00
2023-05-24T17:11:00.430Z,2.00
2023-05-24T17:13:28.988Z,1.60
2023-05-24T17:15:58.110Z,1.70
2023-05-24T17:18:30.254Z,1.70
2023-05-24T17:21:01.548Z,1.70
2023-05-24T17:23:30.822Z,2.00
2023-05-24T17:25:59.586Z,1.60
2023-05-24T17:28:28.610Z,1.67
2023-05-24T17:30:57.192Z,1.50
2023-05-24T17:33:26.206Z,1.40
2023-05-24T17:35:56.715Z,1.37
2023-05-24T17:38:28.568Z,1.70
2023-05-24T17:40:59.787Z,1.80
2023-05-24T17:43:32.431Z,1.47
2023-05-24T17:46:06.730Z,1.23
2023-05-24T17:48:36.210Z,1.67
2023-05-24T17:51:06.035Z,1.55
2023-05-24T17:53:36.446Z,1.55
2023-05-24T17:56:05.574Z,1.50
2023-05-24T17:58:36.534Z,1.67
2023-05-24T18:01:06.306Z,1.42
2023-05-24T18:03:36.672Z,1.70
2023-05-24T18:06:06.732Z,1.70
2023-05-24T18:08:38.660Z,1.60
2023-05-24T18:11:09.706Z,1.75
2023-05-24T18:13:38.983Z,1.67
2023-05-24T18:16:07.908Z,1.40
2023-05-24T18:18:37.732Z,1.70
2023-05-24T18:21:06.609Z,1.75
2023-05-24T18:23:37.891Z,1.73
2023-05-24T18:26:09.739Z,1.50
2023-05-24T18:28:38.530Z,1.70
2023-05-24T18:31:08.547Z,1.75
2023-05-24T18:33:37.788Z,1.70
2023-05-24T18:36:06.727Z,1.47
2023-05-24T18:38:35.541Z,1.47
2023-05-24T18:41:06.243Z,1.40
2023-05-24T18:43:36.751Z,1.63
2023-05-24T18:46:05.527Z,1.60
2023-05-24T18:48:34.057Z,1.70
2023-05-24T18:51:02.672Z,1.70
2023-05-24T18:53:31.305Z,1.50
2023-05-24T18:55:59.804Z,1.70
2023-05-24T18:58:28.559Z,1.60
2023-05-24T19:00:58.604Z,1.83
2023-05-24T19:03:27.177Z,1.53
2023-05-24T19:05:55.872Z,1.80
2023-05-24T19:08:24.500Z,1.70
2023-05-24T19:10:52.999Z,1.70
2023-05-24T19:13:21.640Z,1.33
2023-05-24T19:15:50.197Z,1.50
2023-05-24T19:18:23.110Z,1.50
2023-05-24T19:20:51.697Z,1.70
2023-05-24T19:23:20.191Z,1.70
2023-05-24T19:25:50.568Z,1.57
2023-05-24T19:28:19.437Z,1.60
2023-05-24T19:30:48.038Z,1.33
2023-05-24T19:33:16.753Z,1.43
2023-05-24T19:35:46.907Z,1.40
2023-05-24T19:38:18.056Z,1.37
2023-05-24T19:40:46.780Z,1.90
2023-05-24T19:43:15.328Z,1.30
2023-05-24T19:45:44.163Z,1.57
2023-05-24T19:48:12.987Z,1.70
2023-05-24T19:50:41.485Z,1.50
2023-05-24T19:53:11.542Z,1.30
2023-05-24T19:55:40.159Z,1.20
2023-05-24T19:58:08.672Z,1.30
2023-05-24T20:00:37.320Z,1.40
2023-05-24T20:03:06.107Z,1.50
2023-05-24T20:05:36.972Z,1.20
2023-05-24T20:08:05.736Z,1.30
2023-05-24T20:10:36.553Z,1.20
2023-05-24T20:13:05.224Z,1.53
2023-05-24T20:15:34.064Z,1.40
2023-05-24T20:18:02.810Z,1.47
2023-05-24T20:20:31.393Z,1.53
2023-05-24T20:23:00.213Z,1.10
2023-05-24T20:25:28.914Z,1.30
2023-05-24T20:27:58.818Z,1.40
2023-05-24T20:30:27.625Z,1.17
2023-05-24T20:32:56.391Z,1.30
2023-05-24T20:35:24.936Z,1.30
2023-05-24T20:37:53.573Z,1.30
2023-05-24T20:40:25.032Z,1.17
2023-05-24T20:42:55.573Z,1.10
2023-05-24T20:45:25.622Z,1.50
2023-05-24T20:47:54.268Z,1.20
2023-05-24T20:50:23.088Z,1.40
2023-05-24T20:52:51.703Z,1.20
2023-05-24T20:55:20.208Z,1.30
2023-05-24T20:57:48.824Z,1.43
2023-05-24T21:00:17.588Z,1.47
2023-05-24T21:02:47.615Z,1.30
2023-05-24T21:05:16.606Z,1.37
2023-05-24T21:07:45.186Z,1.50
2023-05-24T21:10:18.374Z,1.13
2023-05-24T21:12:47.968Z,1.40
2023-05-24T21:15:16.659Z,1.30
2023-05-24T21:17:45.415Z,1.63
2023-05-24T21:20:15.466Z,1.70
2023-05-24T21:22:46.133Z,1.83
2023-05-24T21:25:14.824Z,1.60
2023-05-24T21:27:43.384Z,1.37
2023-05-24T21:30:12.244Z,1.77
2023-05-24T21:32:40.985Z,1.37
2023-05-24T21:35:09.957Z,1.70
2023-05-24T21:37:39.885Z,1.67
2023-05-24T21:40:09.191Z,1.83
2023-05-24T21:42:37.933Z,2.00
2023-05-24T21:45:06.773Z,1.90
2023-05-24T21:47:36.233Z,1.90
2023-05-24T21:50:05.387Z,1.90
2023-05-24T21:52:33.904Z,1.77
2023-05-24T21:55:04.024Z,1.97
2023-05-24T21:57:32.654Z,1.80
2023-05-24T22:00:01.214Z,1.80
2023-05-24T22:02:30.451Z,1.77
2023-05-24T22:04:59.033Z,1.60
2023-05-24T22:07:27.606Z,1.60
2023-05-24T22:09:56.320Z,2.03
2023-05-24T22:12:26.426Z,2.30
2023-05-24T22:14:54.943Z,1.83
2023-05-24T22:17:24.969Z,2.20
2023-05-24T22:19:54.200Z,2.83
2023-05-24T22:22:22.783Z,2.50
2023-05-24T22:24:51.683Z,2.20
2023-05-24T22:27:20.903Z,2.27
2023-05-24T22:29:50.928Z,2.20
2023-05-24T22:32:19.844Z,2.77
2023-05-24T22:34:48.373Z,2.23
2023-05-24T22:37:17.628Z,2.40
2023-05-24T22:39:46.409Z,2.33
2023-05-24T22:42:14.912Z,2.30
2023-05-24T22:44:43.427Z,2.60
2023-05-24T22:47:14.214Z,2.40
2023-05-24T22:49:43.103Z,2.40
2023-05-24T22:52:11.891Z,2.53
2023-05-24T22:54:40.540Z,2.63
2023-05-24T22:57:09.170Z,3.20
2023-05-24T22:59:37.706Z,3.20
2023-05-24T23:02:06.569Z,2.63
2023-05-24T23:04:37.922Z,2.60
2023-05-24T23:07:07.118Z,2.80
2023-05-24T23:09:36.016Z,2.90
2023-05-24T23:12:08.078Z,2.33
2023-05-24T23:14:39.321Z,2.60
2023-05-24T23:17:10.443Z,2.30
2023-05-24T23:19:42.669Z,2.40
2023-05-24T23:22:12.008Z,2.40
2023-05-24T23:24:42.454Z,2.20
2023-05-24T23:27:11.415Z,1.97
2023-05-24T23:29:40.052Z,2.97
2023-05-24T23:32:09.045Z,2.20
2023-05-24T23:34:37.831Z,1.87
2023-05-24T23:37:09.307Z,1.80
2023-05-24T23:39:38.052Z,1.77
2023-05-24T23:42:06.971Z,1.87
2023-05-24T23:44:36.279Z,1.73
2023-05-24T23:47:05.131Z,1.73
2023-05-24T23:49:33.842Z,1.63
2023-05-24T23:52:02.357Z,1.60
2023-05-24T23:54:32.460Z,1.90
2023-05-24T23:57:01.297Z,1.47
2023-05-24T23:59:29.787Z,1.60
